sensor_id;sensor_type;location;lat;lon;timestamp;pressure;altitude;pressure_sealevel;temperature;humidity
53041;BME280;39326;42.650;23.248;2022-11-15T00:01:37;93103.75;;;3.61;81.92
53041;BME280;39326;42.650;23.248;2022-11-15T00:04:11;93107.72;;;3.67;81.91
53041;BME280;39326;42.650;23.248;2022-11-15T00:06:43;93105.72;;;3.64;81.62
53041;BME280;39326;42.650;23.248;2022-11-15T00:09:15;93110.53;;;3.62;81.68
53041;BME280;39326;42.650;23.248;2022-11-15T00:11:48;93107.59;;;3.64;81.80
53041;BME280;39326;42.650;23.248;2022-11-15T00:14:21;93100.75;;;3.63;81.68
53041;BME280;39326;42.650;23.248;2022-11-15T00:16:55;93096.59;;;3.61;81.67
53041;BME280;39326;42.650;23.248;2022-11-15T00:19:30;93078.41;;;3.48;81.25
53041;BME280;39326;42.650;23.248;2022-11-15T00:22:02;93088.88;;;3.56;81.58
53041;BME280;39326;42.650;23.248;2022-11-15T00:24:33;93094.16;;;3.56;81.43
53041;BME280;39326;42.650;23.248;2022-11-15T00:27:06;93087.88;;;3.49;81.96
53041;BME280;39326;42.650;23.248;2022-11-15T00:29:37;93081.69;;;3.45;82.43
53041;BME280;39326;42.650;23.248;2022-11-15T00:32:12;93078.16;;;3.41;82.63
53041;BME280;39326;42.650;23.248;2022-11-15T00:34:45;93083.91;;;3.43;82.15
53041;BME280;39326;42.650;23.248;2022-11-15T00:37:19;93086.63;;;3.46;82.32
53041;BME280;39326;42.650;23.248;2022-11-15T00:39:51;93090.50;;;3.49;82.18
53041;BME280;39326;42.650;23.248;2022-11-15T00:42:23;93090.81;;;3.47;81.51
53041;BME280;39326;42.650;23.248;2022-11-15T00:44:54;93085.88;;;3.46;81.72
53041;BME280;39326;42.650;23.248;2022-11-15T00:47:26;93077.09;;;3.42;81.60
53041;BME280;39326;42.650;23.248;2022-11-15T00:49:56;93079.38;;;3.43;82.14
53041;BME280;39326;42.650;23.248;2022-11-15T00:52:22;93073.66;;;3.41;82.32
53041;BME280;39326;42.650;23.248;2022-11-15T00:54:50;93071.00;;;3.41;81.97
53041;BME280;39326;42.650;23.248;2022-11-15T00:57:17;93082.03;;;3.43;82.92
53041;BME280;39326;42.650;23.248;2022-11-15T00:59:44;93073.88;;;3.36;82.84
53041;BME280;39326;42.650;23.248;2022-11-15T01:02:13;93077.38;;;3.40;83.26
53041;BME280;39326;42.650;23.248;2022-11-15T01:04:42;93071.34;;;3.40;82.40
53041;BME280;39326;42.650;23.248;2022-11-15T01:07:11;93072.00;;;3.37;82.69
53041;BME280;39326;42.650;23.248;2022-11-15T01:09:43;93070.00;;;3.33;82.64
53041;BME280;39326;42.650;23.248;2022-11-15T01:12:16;93063.34;;;3.36;82.93
53041;BME280;39326;42.650;23.248;2022-11-15T01:14:44;93069.69;;;3.35;82.45
53041;BME280;39326;42.650;23.248;2022-11-15T01:17:14;93074.94;;;3.35;82.72
53041;BME280;39326;42.650;23.248;2022-11-15T01:19:44;93076.03;;;3.34;83.27
53041;BME280;39326;42.650;23.248;2022-11-15T01:22:15;93075.09;;;3.39;83.39
53041;BME280;39326;42.650;23.248;2022-11-15T01:24:49;93069.47;;;3.40;83.95
53041;BME280;39326;42.650;23.248;2022-11-15T01:27:22;93068.38;;;3.41;83.26
53041;BME280;39326;42.650;23.248;2022-11-15T01:29:53;93071.00;;;3.41;83.28
53041;BME280;39326;42.650;23.248;2022-11-15T01:32:26;93060.03;;;3.39;83.16
53041;BME280;39326;42.650;23.248;2022-11-15T01:34:59;93056.97;;;3.37;83.32
53041;BME280;39326;42.650;23.248;2022-11-15T01:37:32;93061.00;;;3.34;83.80
53041;BME280;39326;42.650;23.248;2022-11-15T01:40:05;93056.81;;;3.33;83.48
53041;BME280;39326;42.650;23.248;2022-11-15T01:42:38;93061.47;;;3.37;83.77
53041;BME280;39326;42.650;23.248;2022-11-15T01:45:17;93053.41;;;3.33;83.28
53041;BME280;39326;42.650;23.248;2022-11-15T01:47:51;93055.28;;;3.32;83.92
53041;BME280;39326;42.650;23.248;2022-11-15T01:50:30;93058.06;;;3.36;83.59
53041;BME280;39326;42.650;23.248;2022-11-15T01:53:04;93049.81;;;3.38;83.61
53041;BME280;39326;42.650;23.248;2022-11-15T01:55:37;93055.88;;;3.38;82.96
53041;BME280;39326;42.650;23.248;2022-11-15T01:58:11;93052.13;;;3.39;82.94
53041;BME280;39326;42.650;23.248;2022-11-15T02:00:45;93045.94;;;3.35;83.33
53041;BME280;39326;42.650;23.248;2022-11-15T02:03:18;93043.22;;;3.31;82.53
53041;BME280;39326;42.650;23.248;2022-11-15T02:05:52;93054.84;;;3.30;82.05
53041;BME280;39326;42.650;23.248;2022-11-15T02:08:25;93049.13;;;3.28;82.19
53041;BME280;39326;42.650;23.248;2022-11-15T02:10:58;93044.50;;;3.25;82.78
53041;BME280;39326;42.650;23.248;2022-11-15T02:13:31;93053.31;;;3.29;82.48
53041;BME280;39326;42.650;23.248;2022-11-15T02:16:20;93049.00;;;3.25;82.09
53041;BME280;39326;42.650;23.248;2022-11-15T02:21:51;93046.38;;;3.25;82.51
53041;BME280;39326;42.650;23.248;2022-11-15T02:30:26;93042.06;;;3.20;82.11
53041;BME280;39326;42.650;23.248;2022-11-15T02:33:26;93039.75;;;3.19;82.95
53041;BME280;39326;42.650;23.248;2022-11-15T02:36:29;93040.53;;;3.19;81.90
53041;BME280;39326;42.650;23.248;2022-11-15T02:39:18;93037.56;;;3.21;83.19
53041;BME280;39326;42.650;23.248;2022-11-15T02:42:01;93031.66;;;3.24;82.97
53041;BME280;39326;42.650;23.248;2022-11-15T02:44:53;93035.94;;;3.28;82.78
53041;BME280;39326;42.650;23.248;2022-11-15T02:47:29;93038.28;;;3.30;82.42
53041;BME280;39326;42.650;23.248;2022-11-15T02:50:08;93035.31;;;3.31;82.95
53041;BME280;39326;42.650;23.248;2022-11-15T02:52:39;93033.44;;;3.32;82.82
53041;BME280;39326;42.650;23.248;2022-11-15T02:55:32;93026.63;;;3.31;82.53
53041;BME280;39326;42.650;23.248;2022-11-15T03:03:55;93041.16;;;3.16;83.04
53041;BME280;39326;42.650;23.248;2022-11-15T03:06:45;93035.78;;;3.13;82.64
53041;BME280;39326;42.650;23.248;2022-11-15T03:09:28;93051.16;;;3.11;82.56
53041;BME280;39326;42.650;23.248;2022-11-15T03:12:19;93037.84;;;3.07;83.22
53041;BME280;39326;42.650;23.248;2022-11-15T03:15:00;93041.44;;;3.02;83.06
53041;BME280;39326;42.650;23.248;2022-11-15T03:17:37;93034.78;;;3.05;82.65
53041;BME280;39326;42.650;23.248;2022-11-15T03:20:11;93034.19;;;2.99;82.68
53041;BME280;39326;42.650;23.248;2022-11-15T03:22:47;93029.25;;;2.98;83.30
53041;BME280;39326;42.650;23.248;2022-11-15T03:25:24;93025.97;;;3.01;82.12
53041;BME280;39326;42.650;23.248;2022-11-15T03:27:57;93026.16;;;2.96;82.85
53041;BME280;39326;42.650;23.248;2022-11-15T03:30:36;93020.00;;;2.92;83.11
53041;BME280;39326;42.650;23.248;2022-11-15T03:33:11;93029.63;;;2.88;82.33
53041;BME280;39326;42.650;23.248;2022-11-15T03:35:46;93016.91;;;2.90;82.87
53041;BME280;39326;42.650;23.248;2022-11-15T03:38:26;93019.28;;;2.83;83.44
53041;BME280;39326;42.650;23.248;2022-11-15T03:41:08;93013.50;;;2.89;82.20
53041;BME280;39326;42.650;23.248;2022-11-15T03:44:20;93018.78;;;2.89;82.81
53041;BME280;39326;42.650;23.248;2022-11-15T03:47:12;93012.28;;;2.87;82.46
53041;BME280;39326;42.650;23.248;2022-11-15T03:49:57;93006.69;;;2.88;82.21
53041;BME280;39326;42.650;23.248;2022-11-15T03:52:33;93001.88;;;2.90;83.21
53041;BME280;39326;42.650;23.248;2022-11-15T03:55:07;93000.34;;;2.89;83.13
53041;BME280;39326;42.650;23.248;2022-11-15T03:57:40;93009.16;;;2.93;82.94
53041;BME280;39326;42.650;23.248;2022-11-15T04:00:13;93001.88;;;2.90;82.94
53041;BME280;39326;42.650;23.248;2022-11-15T04:02:46;92996.50;;;2.87;83.91
53041;BME280;39326;42.650;23.248;2022-11-15T04:05:19;92999.47;;;2.85;83.65
53041;BME280;39326;42.650;23.248;2022-11-15T04:07:52;92992.44;;;2.89;83.09
53041;BME280;39326;42.650;23.248;2022-11-15T04:10:25;92999.94;;;2.78;83.81
53041;BME280;39326;42.650;23.248;2022-11-15T04:12:58;92997.31;;;2.78;84.19
53041;BME280;39326;42.650;23.248;2022-11-15T04:15:31;92995.91;;;2.81;84.54
53041;BME280;39326;42.650;23.248;2022-11-15T04:18:03;92995.16;;;2.80;84.52
53041;BME280;39326;42.650;23.248;2022-11-15T04:20:36;92993.84;;;2.87;83.45
53041;BME280;39326;42.650;23.248;2022-11-15T04:23:26;92993.09;;;2.86;83.68
53041;BME280;39326;42.650;23.248;2022-11-15T04:26:20;92984.44;;;2.86;83.56
53041;BME280;39326;42.650;23.248;2022-11-15T04:28:50;92988.94;;;2.85;83.84
53041;BME280;39326;42.650;23.248;2022-11-15T04:31:38;92992.53;;;2.80;84.46
53041;BME280;39326;42.650;23.248;2022-11-15T04:34:11;92987.25;;;2.80;84.42
53041;BME280;39326;42.650;23.248;2022-11-15T04:36:44;92983.66;;;2.85;83.49
53041;BME280;39326;42.650;23.248;2022-11-15T04:39:34;92976.53;;;2.86;83.34
53041;BME280;39326;42.650;23.248;2022-11-15T04:42:06;92982.31;;;2.79;83.92
53041;BME280;39326;42.650;23.248;2022-11-15T04:44:38;92993.47;;;2.76;83.95
53041;BME280;39326;42.650;23.248;2022-11-15T04:47:07;92987.81;;;2.65;84.75
53041;BME280;39326;42.650;23.248;2022-11-15T04:49:38;92988.47;;;2.62;83.87
53041;BME280;39326;42.650;23.248;2022-11-15T04:52:10;92987.38;;;2.63;83.70
53041;BME280;39326;42.650;23.248;2022-11-15T04:54:43;92992.97;;;2.62;84.43
53041;BME280;39326;42.650;23.248;2022-11-15T04:57:15;92987.25;;;2.60;83.63
53041;BME280;39326;42.650;23.248;2022-11-15T04:59:43;92993.03;;;2.53;84.13
53041;BME280;39326;42.650;23.248;2022-11-15T05:02:13;92991.47;;;2.52;83.32
53041;BME280;39326;42.650;23.248;2022-11-15T05:04:48;92993.34;;;2.51;83.79
53041;BME280;39326;42.650;23.248;2022-11-15T05:07:19;92992.91;;;2.49;84.17
53041;BME280;39326;42.650;23.248;2022-11-15T05:09:52;92997.06;;;2.50;84.08
53041;BME280;39326;42.650;23.248;2022-11-15T05:12:26;92996.75;;;2.52;83.16
53041;BME280;39326;42.650;23.248;2022-11-15T05:14:59;92994.00;;;2.48;84.51
53041;BME280;39326;42.650;23.248;2022-11-15T05:17:30;92992.91;;;2.49;84.52
53041;BME280;39326;42.650;23.248;2022-11-15T05:20:03;92990.72;;;2.51;84.99
53041;BME280;39326;42.650;23.248;2022-11-15T05:22:36;92992.56;;;2.51;84.51
53041;BME280;39326;42.650;23.248;2022-11-15T05:25:08;92986.69;;;2.54;84.99
53041;BME280;39326;42.650;23.248;2022-11-15T05:27:41;92987.91;;;2.57;84.98
53041;BME280;39326;42.650;23.248;2022-11-15T05:30:14;92986.16;;;2.61;85.64
53041;BME280;39326;42.650;23.248;2022-11-15T05:32:45;92978.91;;;2.58;85.05
53041;BME280;39326;42.650;23.248;2022-11-15T05:35:32;92979.91;;;2.65;85.16
53041;BME280;39326;42.650;23.248;2022-11-15T05:38:07;92985.19;;;2.65;85.63
53041;BME280;39326;42.650;23.248;2022-11-15T05:40:40;92984.41;;;2.65;85.91
53041;BME280;39326;42.650;23.248;2022-11-15T05:43:13;92982.56;;;2.65;86.20
53041;BME280;39326;42.650;23.248;2022-11-15T05:45:43;92984.56;;;2.68;85.47
53041;BME280;39326;42.650;23.248;2022-11-15T05:48:09;92976.78;;;2.72;86.21
53041;BME280;39326;42.650;23.248;2022-11-15T05:50:38;92984.22;;;2.70;85.74
53041;BME280;39326;42.650;23.248;2022-11-15T05:53:07;92994.75;;;2.70;86.08
53041;BME280;39326;42.650;23.248;2022-11-15T05:55:37;92993.47;;;2.76;86.77
53041;BME280;39326;42.650;23.248;2022-11-15T05:58:08;93001.50;;;2.59;86.92
53041;BME280;39326;42.650;23.248;2022-11-15T06:00:39;93002.66;;;2.70;87.13
53041;BME280;39326;42.650;23.248;2022-11-15T06:03:08;92990.84;;;2.76;86.13
53041;BME280;39326;42.650;23.248;2022-11-15T06:05:37;92993.22;;;2.69;87.14
53041;BME280;39326;42.650;23.248;2022-11-15T06:08:05;92991.16;;;2.74;86.86
53041;BME280;39326;42.650;23.248;2022-11-15T06:10:34;93000.16;;;2.73;86.93
53041;BME280;39326;42.650;23.248;2022-11-15T06:13:06;92995.09;;;2.68;87.66
53041;BME280;39326;42.650;23.248;2022-11-15T06:15:35;93000.28;;;2.77;86.61
53041;BME280;39326;42.650;23.248;2022-11-15T06:18:05;93004.25;;;2.83;87.43
53041;BME280;39326;42.650;23.248;2022-11-15T06:20:32;93001.00;;;2.86;86.85
53041;BME280;39326;42.650;23.248;2022-11-15T06:23:04;93006.38;;;2.90;86.45
53041;BME280;39326;42.650;23.248;2022-11-15T06:25:31;92997.06;;;2.92;86.25
53041;BME280;39326;42.650;23.248;2022-11-15T06:27:59;92996.75;;;2.94;87.01
53041;BME280;39326;42.650;23.248;2022-11-15T06:30:26;92993.91;;;2.78;87.45
53041;BME280;39326;42.650;23.248;2022-11-15T06:33:05;92992.72;;;2.75;87.36
53041;BME280;39326;42.650;23.248;2022-11-15T06:35:33;92997.78;;;2.60;88.53
53041;BME280;39326;42.650;23.248;2022-11-15T06:38:09;92993.16;;;2.57;87.87
53041;BME280;39326;42.650;23.248;2022-11-15T06:40:40;92999.13;;;2.66;87.74
53041;BME280;39326;42.650;23.248;2022-11-15T06:43:11;92991.56;;;2.64;89.28
53041;BME280;39326;42.650;23.248;2022-11-15T06:45:46;92992.44;;;2.89;88.35
53041;BME280;39326;42.650;23.248;2022-11-15T06:48:15;92997.41;;;3.03;88.00
53041;BME280;39326;42.650;23.248;2022-11-15T06:50:50;92999.81;;;3.17;87.24
53041;BME280;39326;42.650;23.248;2022-11-15T06:53:19;92993.72;;;3.16;86.53
53041;BME280;39326;42.650;23.248;2022-11-15T06:55:50;92997.06;;;3.25;86.98
53041;BME280;39326;42.650;23.248;2022-11-15T06:58:21;92991.47;;;3.27;86.79
53041;BME280;39326;42.650;23.248;2022-11-15T07:00:52;92994.31;;;3.22;86.62
53041;BME280;39326;42.650;23.248;2022-11-15T07:03:25;92991.84;;;3.38;86.60
53041;BME280;39326;42.650;23.248;2022-11-15T07:05:59;92987.13;;;3.43;86.92
53041;BME280;39326;42.650;23.248;2022-11-15T07:08:31;92983.94;;;3.38;86.55
53041;BME280;39326;42.650;23.248;2022-11-15T07:11:03;92988.50;;;3.28;87.64
53041;BME280;39326;42.650;23.248;2022-11-15T07:13:33;92985.09;;;3.28;87.82
53041;BME280;39326;42.650;23.248;2022-11-15T07:16:08;92985.69;;;3.46;87.75
53041;BME280;39326;42.650;23.248;2022-11-15T07:18:40;92982.88;;;3.63;87.22
53041;BME280;39326;42.650;23.248;2022-11-15T07:21:12;92985.28;;;3.56;87.66
53041;BME280;39326;42.650;23.248;2022-11-15T07:23:46;92987.94;;;3.68;87.02
53041;BME280;39326;42.650;23.248;2022-11-15T07:26:18;92993.31;;;3.72;87.20
53041;BME280;39326;42.650;23.248;2022-11-15T07:28:51;92979.25;;;3.68;87.89
53041;BME280;39326;42.650;23.248;2022-11-15T07:31:24;92997.72;;;3.68;88.22
53041;BME280;39326;42.650;23.248;2022-11-15T07:33:57;92987.47;;;3.66;88.42
53041;BME280;39326;42.650;23.248;2022-11-15T07:36:30;92995.47;;;3.45;89.67
53041;BME280;39326;42.650;23.248;2022-11-15T07:39:03;92996.50;;;3.65;88.59
53041;BME280;39326;42.650;23.248;2022-11-15T07:41:35;93000.25;;;3.76;88.12
53041;BME280;39326;42.650;23.248;2022-11-15T07:44:07;92992.78;;;3.91;87.75
53041;BME280;39326;42.650;23.248;2022-11-15T07:46:37;92984.97;;;4.06;87.28
53041;BME280;39326;42.650;23.248;2022-11-15T07:49:08;92996.22;;;4.15;87.38
53041;BME280;39326;42.650;23.248;2022-11-15T07:51:40;92997.44;;;4.18;87.38
53041;BME280;39326;42.650;23.248;2022-11-15T07:54:10;92991.69;;;4.16;87.55
53041;BME280;39326;42.650;23.248;2022-11-15T07:56:42;92986.41;;;4.04;88.12
53041;BME280;39326;42.650;23.248;2022-11-15T07:59:16;92987.28;;;4.08;88.60
53041;BME280;39326;42.650;23.248;2022-11-15T08:01:49;92981.34;;;4.23;88.11
53041;BME280;39326;42.650;23.248;2022-11-15T08:04:22;92983.66;;;4.37;87.57
53041;BME280;39326;42.650;23.248;2022-11-15T08:06:56;92983.41;;;4.42;87.34
53041;BME280;39326;42.650;23.248;2022-11-15T08:09:29;92983.88;;;4.44;87.74
53041;BME280;39326;42.650;23.248;2022-11-15T08:12:01;92984.75;;;4.36;87.83
53041;BME280;39326;42.650;23.248;2022-11-15T08:14:35;92981.13;;;4.40;87.49
53041;BME280;39326;42.650;23.248;2022-11-15T08:17:09;92976.41;;;4.34;87.90
53041;BME280;39326;42.650;23.248;2022-11-15T08:19:41;92980.00;;;4.41;87.54
53041;BME280;39326;42.650;23.248;2022-11-15T08:22:14;92981.22;;;4.56;87.24
53041;BME280;39326;42.650;23.248;2022-11-15T08:24:46;92974.06;;;4.57;86.35
53041;BME280;39326;42.650;23.248;2022-11-15T08:27:19;92973.09;;;4.49;86.90
53041;BME280;39326;42.650;23.248;2022-11-15T08:29:52;92966.97;;;4.61;87.06
53041;BME280;39326;42.650;23.248;2022-11-15T08:32:26;92967.53;;;4.66;86.67
53041;BME280;39326;42.650;23.248;2022-11-15T08:34:59;92964.84;;;4.79;86.43
53041;BME280;39326;42.650;23.248;2022-11-15T08:37:32;92964.22;;;4.69;86.79
53041;BME280;39326;42.650;23.248;2022-11-15T08:40:04;92968.44;;;4.58;87.21
53041;BME280;39326;42.650;23.248;2022-11-15T08:42:36;92956.97;;;4.66;87.35
53041;BME280;39326;42.650;23.248;2022-11-15T08:45:08;92955.97;;;4.71;86.71
53041;BME280;39326;42.650;23.248;2022-11-15T08:47:41;92949.72;;;4.91;86.65
53041;BME280;39326;42.650;23.248;2022-11-15T08:50:14;92950.78;;;5.03;85.92
53041;BME280;39326;42.650;23.248;2022-11-15T08:52:46;92953.13;;;5.20;85.62
53041;BME280;39326;42.650;23.248;2022-11-15T08:55:21;92954.06;;;5.12;86.60
53041;BME280;39326;42.650;23.248;2022-11-15T08:57:56;92944.13;;;5.37;85.99
53041;BME280;39326;42.650;23.248;2022-11-15T09:00:29;92944.28;;;5.44;85.09
53041;BME280;39326;42.650;23.248;2022-11-15T09:03:05;92941.22;;;5.58;85.23
53041;BME280;39326;42.650;23.248;2022-11-15T09:05:38;92941.78;;;5.35;85.89
53041;BME280;39326;42.650;23.248;2022-11-15T09:08:11;92933.34;;;5.30;85.97
53041;BME280;39326;42.650;23.248;2022-11-15T09:10:44;92932.19;;;5.43;85.83
53041;BME280;39326;42.650;23.248;2022-11-15T09:13:18;92925.34;;;5.58;84.98
53041;BME280;39326;42.650;23.248;2022-11-15T09:15:51;92928.50;;;5.47;84.84
53041;BME280;39326;42.650;23.248;2022-11-15T09:18:24;92921.16;;;5.41;85.16
53041;BME280;39326;42.650;23.248;2022-11-15T09:21:02;92923.09;;;5.28;85.64
53041;BME280;39326;42.650;23.248;2022-11-15T09:23:35;92924.84;;;5.52;85.22
53041;BME280;39326;42.650;23.248;2022-11-15T09:26:07;92916.28;;;5.27;84.96
53041;BME280;39326;42.650;23.248;2022-11-15T09:28:40;92914.34;;;5.24;85.62
53041;BME280;39326;42.650;23.248;2022-11-15T09:31:13;92912.94;;;5.14;85.45
53041;BME280;39326;42.650;23.248;2022-11-15T09:33:50;92902.88;;;5.36;84.84
53041;BME280;39326;42.650;23.248;2022-11-15T09:36:24;92906.22;;;5.48;85.08
53041;BME280;39326;42.650;23.248;2022-11-15T09:38:57;92902.03;;;5.47;84.95
53041;BME280;39326;42.650;23.248;2022-11-15T09:41:43;92896.25;;;5.42;85.25
53041;BME280;39326;42.650;23.248;2022-11-15T09:44:32;92900.94;;;5.64;84.34
53041;BME280;39326;42.650;23.248;2022-11-15T09:50:06;92895.50;;;5.57;84.49
53041;BME280;39326;42.650;23.248;2022-11-15T09:52:44;92891.13;;;5.33;85.31
53041;BME280;39326;42.650;23.248;2022-11-15T09:55:15;92888.47;;;5.33;85.60
53041;BME280;39326;42.650;23.248;2022-11-15T09:58:43;92883.09;;;5.30;85.14
53041;BME280;39326;42.650;23.248;2022-11-15T10:00:53;92883.47;;;5.44;86.04
53041;BME280;39326;42.650;23.248;2022-11-15T10:03:36;92876.03;;;5.65;85.30
53041;BME280;39326;42.650;23.248;2022-11-15T10:06:21;92860.13;;;5.81;84.85
53041;BME280;39326;42.650;23.248;2022-11-15T10:09:11;92862.50;;;6.21;84.34
53041;BME280;39326;42.650;23.248;2022-11-15T10:11:44;92859.19;;;6.44;84.10
53041;BME280;39326;42.650;23.248;2022-11-15T10:14:24;92863.91;;;6.73;83.14
53041;BME280;39326;42.650;23.248;2022-11-15T10:17:13;92857.38;;;7.09;82.75
53041;BME280;39326;42.650;23.248;2022-11-15T10:20:20;92850.91;;;7.30;80.79
53041;BME280;39326;42.650;23.248;2022-11-15T10:23:04;92844.16;;;7.59;80.68
53041;BME280;39326;42.650;23.248;2022-11-15T10:25:37;92847.91;;;8.07;80.72
53041;BME280;39326;42.650;23.248;2022-11-15T10:28:33;92841.75;;;8.30;77.31
53041;BME280;39326;42.650;23.248;2022-11-15T10:31:24;92831.44;;;8.55;76.97
53041;BME280;39326;42.650;23.248;2022-11-15T10:34:12;92822.41;;;8.63;74.20
53041;BME280;39326;42.650;23.248;2022-11-15T10:36:58;92824.56;;;8.87;74.59
53041;BME280;39326;42.650;23.248;2022-11-15T10:39:31;92821.91;;;9.24;75.11
53041;BME280;39326;42.650;23.248;2022-11-15T10:42:28;92822.03;;;9.42;73.04
53041;BME280;39326;42.650;23.248;2022-11-15T10:45:01;92808.88;;;9.64;73.10
53041;BME280;39326;42.650;23.248;2022-11-15T10:47:34;92818.53;;;9.82;71.57
53041;BME280;39326;42.650;23.248;2022-11-15T10:50:26;92804.56;;;9.41;70.56
53041;BME280;39326;42.650;23.248;2022-11-15T10:52:58;92804.66;;;9.55;70.98
53041;BME280;39326;42.650;23.248;2022-11-15T10:55:34;92800.25;;;9.77;69.73
53041;BME280;39326;42.650;23.248;2022-11-15T10:58:20;92793.50;;;9.94;68.36
53041;BME280;39326;42.650;23.248;2022-11-15T11:00:55;92793.91;;;10.00;68.22
53041;BME280;39326;42.650;23.248;2022-11-15T11:03:38;92788.16;;;9.94;67.26
53041;BME280;39326;42.650;23.248;2022-11-15T11:06:16;92782.19;;;10.12;66.57
53041;BME280;39326;42.650;23.248;2022-11-15T11:09:03;92788.31;;;10.16;65.44
53041;BME280;39326;42.650;23.248;2022-11-15T11:11:48;92784.19;;;10.29;65.63
53041;BME280;39326;42.650;23.248;2022-11-15T11:14:34;92783.38;;;10.18;65.59
53041;BME280;39326;42.650;23.248;2022-11-15T11:31:18;92751.94;;;10.73;63.68
53041;BME280;39326;42.650;23.248;2022-11-15T11:34:32;92748.94;;;10.93;63.65
53041;BME280;39326;42.650;23.248;2022-11-15T11:37:14;92743.22;;;10.91;62.84
53041;BME280;39326;42.650;23.248;2022-11-15T11:42:52;92730.59;;;10.73;64.11
53041;BME280;39326;42.650;23.248;2022-11-15T11:45:58;92728.34;;;11.07;62.49
53041;BME280;39326;42.650;23.248;2022-11-15T11:48:51;92727.22;;;11.05;63.01
53041;BME280;39326;42.650;23.248;2022-11-15T11:51:36;92721.50;;;10.92;62.73
53041;BME280;39326;42.650;23.248;2022-11-15T11:54:31;92715.69;;;10.40;61.67
53041;BME280;39326;42.650;23.248;2022-11-15T11:57:10;92700.47;;;10.48;63.63
53041;BME280;39326;42.650;23.248;2022-11-15T12:00:04;92700.91;;;10.71;62.16
53041;BME280;39326;42.650;23.248;2022-11-15T12:03:01;92694.03;;;10.84;63.10
53041;BME280;39326;42.650;23.248;2022-11-15T12:05:44;92697.09;;;11.01;62.50
53041;BME280;39326;42.650;23.248;2022-11-15T12:11:20;92690.97;;;10.72;62.83
53041;BME280;39326;42.650;23.248;2022-11-15T12:13:57;92693.66;;;11.18;62.64
53041;BME280;39326;42.650;23.248;2022-11-15T12:16:42;92677.25;;;11.12;61.69
53041;BME280;39326;42.650;23.248;2022-11-15T12:19:13;92678.03;;;10.88;62.37
53041;BME280;39326;42.650;23.248;2022-11-15T12:22:00;92678.03;;;11.41;60.71
53041;BME280;39326;42.650;23.248;2022-11-15T12:24:41;92671.53;;;11.42;60.46
53041;BME280;39326;42.650;23.248;2022-11-15T12:30:19;92668.06;;;11.60;60.24
53041;BME280;39326;42.650;23.248;2022-11-15T12:33:02;92666.94;;;11.50;58.86
53041;BME280;39326;42.650;23.248;2022-11-15T12:35:43;92657.75;;;11.65;59.08
53041;BME280;39326;42.650;23.248;2022-11-15T12:38:55;92653.09;;;11.84;57.71
53041;BME280;39326;42.650;23.248;2022-11-15T12:41:37;92651.31;;;12.43;57.94
53041;BME280;39326;42.650;23.248;2022-11-15T12:47:26;92648.56;;;12.54;55.58
53041;BME280;39326;42.650;23.248;2022-11-15T12:49:59;92642.41;;;12.61;56.55
53041;BME280;39326;42.650;23.248;2022-11-15T12:52:32;92641.25;;;12.58;56.38
53041;BME280;39326;42.650;23.248;2022-11-15T12:55:32;92642.69;;;12.11;56.26
53041;BME280;39326;42.650;23.248;2022-11-15T12:58:42;92635.06;;;12.06;56.72
53041;BME280;39326;42.650;23.248;2022-11-15T13:04:25;92635.03;;;12.16;55.77
53041;BME280;39326;42.650;23.248;2022-11-15T13:07:04;92638.19;;;11.90;55.57
53041;BME280;39326;42.650;23.248;2022-11-15T13:15:34;92628.44;;;11.08;57.65
53041;BME280;39326;42.650;23.248;2022-11-15T13:18:36;92627.72;;;10.94;58.43
53041;BME280;39326;42.650;23.248;2022-11-15T13:21:27;92622.38;;;10.72;58.39
53041;BME280;39326;42.650;23.248;2022-11-15T13:24:16;92617.81;;;10.80;58.57
53041;BME280;39326;42.650;23.248;2022-11-15T13:26:50;92619.72;;;10.72;58.30
53041;BME280;39326;42.650;23.248;2022-11-15T13:29:22;92607.13;;;10.37;59.47
53041;BME280;39326;42.650;23.248;2022-11-15T13:31:55;92613.22;;;10.27;59.40
53041;BME280;39326;42.650;23.248;2022-11-15T13:34:37;92618.81;;;9.97;60.27
53041;BME280;39326;42.650;23.248;2022-11-15T13:37:36;92621.09;;;9.91;60.55
53041;BME280;39326;42.650;23.248;2022-11-15T13:40:35;92622.63;;;9.92;61.16
53041;BME280;39326;42.650;23.248;2022-11-15T13:43:33;92618.09;;;10.07;60.94
53041;BME280;39326;42.650;23.248;2022-11-15T13:46:16;92608.59;;;10.13;60.21
53041;BME280;39326;42.650;23.248;2022-11-15T13:48:57;92610.50;;;10.05;60.42
53041;BME280;39326;42.650;23.248;2022-11-15T13:54:36;92607.03;;;10.01;60.91
53041;BME280;39326;42.650;23.248;2022-11-15T14:00:37;92599.34;;;9.82;61.01
53041;BME280;39326;42.650;23.248;2022-11-15T14:03:18;92594.38;;;9.66;61.58
53041;BME280;39326;42.650;23.248;2022-11-15T14:06:12;92597.38;;;9.58;62.42
53041;BME280;39326;42.650;23.248;2022-11-15T14:09:14;92605.72;;;9.45;62.81
53041;BME280;39326;42.650;23.248;2022-11-15T14:11:55;92601.88;;;9.39;63.03
53041;BME280;39326;42.650;23.248;2022-11-15T14:14:28;92611.75;;;9.39;63.01
53041;BME280;39326;42.650;23.248;2022-11-15T14:17:02;92597.59;;;9.24;63.55
53041;BME280;39326;42.650;23.248;2022-11-15T14:19:36;92594.91;;;9.17;63.53
53041;BME280;39326;42.650;23.248;2022-11-15T14:22:22;92590.28;;;9.07;64.43
53041;BME280;39326;42.650;23.248;2022-11-15T14:25:16;92592.91;;;8.96;64.98
53041;BME280;39326;42.650;23.248;2022-11-15T14:28:16;92589.06;;;8.90;65.01
53041;BME280;39326;42.650;23.248;2022-11-15T14:31:00;92590.13;;;8.78;65.25
53041;BME280;39326;42.650;23.248;2022-11-15T14:33:38;92600.72;;;8.71;65.48
53041;BME280;39326;42.650;23.248;2022-11-15T14:36:22;92593.44;;;8.64;66.11
53041;BME280;39326;42.650;23.248;2022-11-15T14:38:54;92597.91;;;8.57;65.69
53041;BME280;39326;42.650;23.248;2022-11-15T14:41:27;92600.94;;;8.52;65.84
53041;BME280;39326;42.650;23.248;2022-11-15T14:44:01;92594.75;;;8.40;66.52
53041;BME280;39326;42.650;23.248;2022-11-15T14:46:31;92598.44;;;8.29;67.02
53041;BME280;39326;42.650;23.248;2022-11-15T14:49:05;92591.06;;;8.11;67.89